sensor_id;sensor_type;location;lat;lon;timestamp;P1;durP1;ratioP1;P2;durP2;ratioP2
10633;SDS011;5365;51.640;8.106;2022-08-21T00:01:13;11.80;;;10.00;;
10633;SDS011;5365;51.640;8.106;2022-08-21T00:03:37;14.30;;;9.10;;
10633;SDS011;5365;51.640;8.106;2022-08-21T00:05:59;10.80;;;9.17;;
10633;SDS011;5365;51.640;8.106;2022-08-21T00:08:21;14.57;;;9.37;;
10633;SDS011;5365;51.640;8.106;2022-08-21T00:10:43;16.83;;;10.20;;
10633;SDS011;5365;51.640;8.106;2022-08-21T00:13:06;13.27;;;9.10;;
10633;SDS011;5365;51.640;8.106;2022-08-21T00:15:28;13.50;;;8.83;;
10633;SDS011;5365;51.640;8.106;2022-08-21T00:17:52;12.70;;;8.73;;
10633;SDS011;5365;51.640;8.106;2022-08-21T00:20:15;14.70;;;10.20;;
10633;SDS011;5365;51.640;8.106;2022-08-21T00:22:38;12.33;;;7.60;;
10633;SDS011;5365;51.640;8.106;2022-08-21T00:25:01;12.07;;;7.70;;
10633;SDS011;5365;51.640;8.106;2022-08-21T00:27:24;11.47;;;7.73;;
10633;SDS011;5365;51.640;8.106;2022-08-21T00:29:46;10.13;;;8.23;;
10633;SDS011;5365;51.640;8.106;2022-08-21T00:32:08;10.27;;;7.77;;
10633;SDS011;5365;51.640;8.106;2022-08-21T00:34:30;10.88;;;7.85;;
10633;SDS011;5365;51.640;8.106;2022-08-21T00:36:52;8.50;;;7.07;;
10633;SDS011;5365;51.640;8.106;2022-08-21T00:39:14;9.43;;;6.67;;
10633;SDS011;5365;51.640;8.106;2022-08-21T00:41:36;8.37;;;7.20;;
10633;SDS011;5365;51.640;8.106;2022-08-21T00:43:59;10.83;;;6.80;;
10633;SDS011;5365;51.640;8.106;2022-08-21T00:46:21;8.07;;;6.47;;
10633;SDS011;5365;51.640;8.106;2022-08-21T00:48:43;11.10;;;6.80;;
10633;SDS011;5365;51.640;8.106;2022-08-21T00:51:08;13.50;;;6.97;;
10633;SDS011;5365;51.640;8.106;2022-08-21T00:53:33;14.67;;;7.40;;
10633;SDS011;5365;51.640;8.106;2022-08-21T00:55:57;9.50;;;6.68;;
10633;SDS011;5365;51.640;8.106;2022-08-21T00:58:20;7.18;;;6.28;;
10633;SDS011;5365;51.640;8.106;2022-08-21T01:00:43;7.80;;;5.70;;
10633;SDS011;5365;51.640;8.106;2022-08-21T01:03:09;9.27;;;6.87;;
10633;SDS011;5365;51.640;8.106;2022-08-21T01:05:33;10.98;;;6.63;;
10633;SDS011;5365;51.640;8.106;2022-08-21T01:07:55;12.43;;;6.82;;
10633;SDS011;5365;51.640;8.106;2022-08-21T01:10:18;7.37;;;6.57;;
10633;SDS011;5365;51.640;8.106;2022-08-21T01:12:41;7.93;;;6.27;;
10633;SDS011;5365;51.640;8.106;2022-08-21T01:15:04;6.60;;;5.80;;
10633;SDS011;5365;51.640;8.106;2022-08-21T01:17:27;7.60;;;5.97;;
10633;SDS011;5365;51.640;8.106;2022-08-21T01:19:49;7.23;;;6.13;;
10633;SDS011;5365;51.640;8.106;2022-08-21T01:22:10;7.03;;;6.03;;
10633;SDS011;5365;51.640;8.106;2022-08-21T01:24:32;8.10;;;5.85;;
10633;SDS011;5365;51.640;8.106;2022-08-21T01:26:54;9.13;;;6.57;;
10633;SDS011;5365;51.640;8.106;2022-08-21T01:31:51;7.05;;;5.85;;
10633;SDS011;5365;51.640;8.106;2022-08-21T01:34:13;7.73;;;6.37;;
10633;SDS011;5365;51.640;8.106;2022-08-21T01:36:37;6.30;;;5.43;;
10633;SDS011;5365;51.640;8.106;2022-08-21T01:38:59;7.37;;;6.10;;
10633;SDS011;5365;51.640;8.106;2022-08-21T01:41:21;6.63;;;5.87;;
10633;SDS011;5365;51.640;8.106;2022-08-21T01:43:43;7.97;;;5.97;;
10633;SDS011;5365;51.640;8.106;2022-08-21T01:46:06;8.93;;;5.80;;
10633;SDS011;5365;51.640;8.106;2022-08-21T01:48:27;10.97;;;6.83;;
10633;SDS011;5365;51.640;8.106;2022-08-21T01:50:49;11.00;;;6.23;;
10633;SDS011;5365;51.640;8.106;2022-08-21T01:53:11;8.83;;;6.30;;
10633;SDS011;5365;51.640;8.106;2022-08-21T01:55:34;14.03;;;6.80;;
10633;SDS011;5365;51.640;8.106;2022-08-21T01:57:56;10.00;;;6.87;;
10633;SDS011;5365;51.640;8.106;2022-08-21T02:00:19;10.73;;;7.00;;
10633;SDS011;5365;51.640;8.106;2022-08-21T02:02:44;11.77;;;6.53;;
10633;SDS011;5365;51.640;8.106;2022-08-21T02:05:06;7.67;;;6.93;;
10633;SDS011;5365;51.640;8.106;2022-08-21T02:07:35;8.73;;;6.63;;
10633;SDS011;5365;51.640;8.106;2022-08-21T02:10:01;9.33;;;6.93;;
10633;SDS011;5365;51.640;8.106;2022-08-21T02:12:24;8.90;;;6.60;;
10633;SDS011;5365;51.640;8.106;2022-08-21T02:14:46;10.35;;;6.55;;
10633;SDS011;5365;51.640;8.106;2022-08-21T02:17:08;10.05;;;7.13;;
10633;SDS011;5365;51.640;8.106;2022-08-21T02:19:30;12.03;;;6.27;;
10633;SDS011;5365;51.640;8.106;2022-08-21T02:21:52;10.68;;;6.97;;
10633;SDS011;5365;51.640;8.106;2022-08-21T02:24:14;11.60;;;6.77;;
10633;SDS011;5365;51.640;8.106;2022-08-21T02:26:35;9.10;;;6.90;;
10633;SDS011;5365;51.640;8.106;2022-08-21T02:28:58;11.53;;;7.70;;
10633;SDS011;5365;51.640;8.106;2022-08-21T02:31:19;12.45;;;7.40;;
10633;SDS011;5365;51.640;8.106;2022-08-21T02:33:41;11.35;;;8.10;;
10633;SDS011;5365;51.640;8.106;2022-08-21T02:36:04;11.27;;;7.90;;
10633;SDS011;5365;51.640;8.106;2022-08-21T02:38:28;9.10;;;8.20;;
10633;SDS011;5365;51.640;8.106;2022-08-21T02:40:54;8.80;;;7.13;;
10633;SDS011;5365;51.640;8.106;2022-08-21T02:43:17;9.77;;;7.35;;
10633;SDS011;5365;51.640;8.106;2022-08-21T02:45:40;8.80;;;6.90;;
10633;SDS011;5365;51.640;8.106;2022-08-21T02:48:04;10.63;;;7.63;;
10633;SDS011;5365;51.640;8.106;2022-08-21T02:50:30;10.13;;;7.50;;
10633;SDS011;5365;51.640;8.106;2022-08-21T02:52:54;9.60;;;7.82;;
10633;SDS011;5365;51.640;8.106;2022-08-21T02:55:16;10.10;;;7.50;;
10633;SDS011;5365;51.640;8.106;2022-08-21T02:57:38;9.63;;;8.27;;
10633;SDS011;5365;51.640;8.106;2022-08-21T03:00:00;9.93;;;7.05;;
10633;SDS011;5365;51.640;8.106;2022-08-21T03:02:22;11.45;;;6.78;;
10633;SDS011;5365;51.640;8.106;2022-08-21T03:04:43;11.27;;;7.70;;
10633;SDS011;5365;51.640;8.106;2022-08-21T03:07:07;11.77;;;7.32;;
10633;SDS011;5365;51.640;8.106;2022-08-21T03:09:28;12.40;;;7.22;;
10633;SDS011;5365;51.640;8.106;2022-08-21T03:11:50;9.27;;;7.03;;
10633;SDS011;5365;51.640;8.106;2022-08-21T03:14:12;9.55;;;7.30;;
10633;SDS011;5365;51.640;8.106;2022-08-21T03:16:34;9.05;;;6.60;;
10633;SDS011;5365;51.640;8.106;2022-08-21T03:18:56;9.20;;;7.93;;
10633;SDS011;5365;51.640;8.106;2022-08-21T03:21:18;11.65;;;7.78;;
10633;SDS011;5365;51.640;8.106;2022-08-21T03:23:40;12.77;;;8.20;;
10633;SDS011;5365;51.640;8.106;2022-08-21T03:26:03;8.63;;;7.50;;
10633;SDS011;5365;51.640;8.106;2022-08-21T03:28:25;8.80;;;7.40;;
10633;SDS011;5365;51.640;8.106;2022-08-21T03:30:48;10.88;;;7.57;;
10633;SDS011;5365;51.640;8.106;2022-08-21T03:33:11;9.43;;;8.05;;
10633;SDS011;5365;51.640;8.106;2022-08-21T03:35:33;11.18;;;6.78;;
10633;SDS011;5365;51.640;8.106;2022-08-21T03:37:55;11.77;;;7.03;;
10633;SDS011;5365;51.640;8.106;2022-08-21T03:40:18;11.98;;;7.82;;
10633;SDS011;5365;51.640;8.106;2022-08-21T03:42:41;9.95;;;7.45;;
10633;SDS011;5365;51.640;8.106;2022-08-21T03:45:04;8.23;;;7.43;;
10633;SDS011;5365;51.640;8.106;2022-08-21T03:47:27;10.98;;;6.70;;
10633;SDS011;5365;51.640;8.106;2022-08-21T03:49:48;8.88;;;7.40;;
10633;SDS011;5365;51.640;8.106;2022-08-21T03:52:10;9.18;;;7.03;;
10633;SDS011;5365;51.640;8.106;2022-08-21T03:54:32;11.82;;;7.03;;
10633;SDS011;5365;51.640;8.106;2022-08-21T03:56:54;9.45;;;7.45;;
10633;SDS011;5365;51.640;8.106;2022-08-21T03:59:17;9.02;;;7.60;;
10633;SDS011;5365;51.640;8.106;2022-08-21T04:01:39;10.25;;;7.38;;
10633;SDS011;5365;51.640;8.106;2022-08-21T04:04:00;10.75;;;7.55;;
10633;SDS011;5365;51.640;8.106;2022-08-21T04:06:23;8.68;;;7.13;;
10633;SDS011;5365;51.640;8.106;2022-08-21T04:08:45;8.60;;;7.72;;
10633;SDS011;5365;51.640;8.106;2022-08-21T04:11:06;10.95;;;7.47;;
10633;SDS011;5365;51.640;8.106;2022-08-21T04:13:29;9.90;;;7.60;;
10633;SDS011;5365;51.640;8.106;2022-08-21T04:15:50;14.50;;;7.75;;
10633;SDS011;5365;51.640;8.106;2022-08-21T04:18:12;7.95;;;7.07;;
10633;SDS011;5365;51.640;8.106;2022-08-21T04:20:34;9.63;;;7.78;;
10633;SDS011;5365;51.640;8.106;2022-08-21T04:22:56;9.15;;;7.15;;
10633;SDS011;5365;51.640;8.106;2022-08-21T04:25:19;9.20;;;6.60;;
10633;SDS011;5365;51.640;8.106;2022-08-21T04:27:42;11.18;;;7.80;;
10633;SDS011;5365;51.640;8.106;2022-08-21T04:30:04;10.02;;;7.57;;
10633;SDS011;5365;51.640;8.106;2022-08-21T04:32:26;7.70;;;6.80;;
10633;SDS011;5365;51.640;8.106;2022-08-21T04:34:49;10.20;;;7.57;;
10633;SDS011;5365;51.640;8.106;2022-08-21T04:37:11;14.10;;;7.80;;
10633;SDS011;5365;51.640;8.106;2022-08-21T04:39:33;10.73;;;7.57;;
10633;SDS011;5365;51.640;8.106;2022-08-21T04:41:54;9.35;;;7.38;;
10633;SDS011;5365;51.640;8.106;2022-08-21T04:44:16;8.97;;;7.70;;
10633;SDS011;5365;51.640;8.106;2022-08-21T04:46:38;9.60;;;7.60;;
10633;SDS011;5365;51.640;8.106;2022-08-21T04:49:00;8.17;;;7.20;;
10633;SDS011;5365;51.640;8.106;2022-08-21T04:51:23;9.93;;;7.40;;
10633;SDS011;5365;51.640;8.106;2022-08-21T04:53:53;9.13;;;8.07;;
10633;SDS011;5365;51.640;8.106;2022-08-21T04:56:21;9.57;;;8.20;;
10633;SDS011;5365;51.640;8.106;2022-08-21T04:58:44;13.60;;;9.03;;
10633;SDS011;5365;51.640;8.106;2022-08-21T05:01:07;11.57;;;8.60;;
10633;SDS011;5365;51.640;8.106;2022-08-21T05:03:32;10.27;;;7.60;;
10633;SDS011;5365;51.640;8.106;2022-08-21T05:05:57;9.30;;;7.60;;
10633;SDS011;5365;51.640;8.106;2022-08-21T05:08:20;14.73;;;8.70;;
10633;SDS011;5365;51.640;8.106;2022-08-21T05:10:44;9.53;;;7.40;;
10633;SDS011;5365;51.640;8.106;2022-08-21T05:13:06;9.60;;;7.33;;
10633;SDS011;5365;51.640;8.106;2022-08-21T05:15:28;10.73;;;8.20;;
10633;SDS011;5365;51.640;8.106;2022-08-21T05:17:52;13.57;;;8.40;;
10633;SDS011;5365;51.640;8.106;2022-08-21T05:20:13;8.53;;;7.70;;
10633;SDS011;5365;51.640;8.106;2022-08-21T05:22:36;8.97;;;8.07;;
10633;SDS011;5365;51.640;8.106;2022-08-21T05:24:58;10.10;;;8.07;;
10633;SDS011;5365;51.640;8.106;2022-08-21T05:27:20;11.70;;;8.47;;
10633;SDS011;5365;51.640;8.106;2022-08-21T05:29:42;11.53;;;8.27;;
10633;SDS011;5365;51.640;8.106;2022-08-21T05:32:08;12.10;;;8.13;;
10633;SDS011;5365;51.640;8.106;2022-08-21T05:34:32;9.97;;;8.17;;
10633;SDS011;5365;51.640;8.106;2022-08-21T05:36:54;9.20;;;8.10;;
10633;SDS011;5365;51.640;8.106;2022-08-21T05:39:16;10.70;;;8.40;;
10633;SDS011;5365;51.640;8.106;2022-08-21T05:41:38;14.80;;;9.07;;
10633;SDS011;5365;51.640;8.106;2022-08-21T05:44:00;10.53;;;7.97;;
10633;SDS011;5365;51.640;8.106;2022-08-21T05:46:22;13.10;;;9.10;;
10633;SDS011;5365;51.640;8.106;2022-08-21T05:48:44;11.07;;;8.77;;
10633;SDS011;5365;51.640;8.106;2022-08-21T05:51:06;16.63;;;9.10;;
10633;SDS011;5365;51.640;8.106;2022-08-21T05:53:29;14.73;;;8.90;;
10633;SDS011;5365;51.640;8.106;2022-08-21T05:55:51;14.13;;;8.87;;
10633;SDS011;5365;51.640;8.106;2022-08-21T05:58:15;12.67;;;9.00;;
10633;SDS011;5365;51.640;8.106;2022-08-21T06:00:38;14.10;;;9.40;;
10633;SDS011;5365;51.640;8.106;2022-08-21T06:03:00;12.93;;;9.47;;
10633;SDS011;5365;51.640;8.106;2022-08-21T06:05:22;13.00;;;9.53;;
10633;SDS011;5365;51.640;8.106;2022-08-21T06:07:44;11.53;;;9.33;;
10633;SDS011;5365;51.640;8.106;2022-08-21T06:10:06;13.33;;;9.80;;
10633;SDS011;5365;51.640;8.106;2022-08-21T06:12:29;13.40;;;10.00;;
10633;SDS011;5365;51.640;8.106;2022-08-21T06:14:50;11.87;;;9.60;;
10633;SDS011;5365;51.640;8.106;2022-08-21T06:17:13;12.70;;;9.43;;
10633;SDS011;5365;51.640;8.106;2022-08-21T06:19:36;9.87;;;8.47;;
10633;SDS011;5365;51.640;8.106;2022-08-21T06:21:58;11.10;;;9.18;;
10633;SDS011;5365;51.640;8.106;2022-08-21T06:24:20;11.33;;;9.63;;
10633;SDS011;5365;51.640;8.106;2022-08-21T06:26:42;13.07;;;9.88;;
10633;SDS011;5365;51.640;8.106;2022-08-21T06:29:04;13.68;;;10.18;;
10633;SDS011;5365;51.640;8.106;2022-08-21T06:31:26;9.43;;;8.38;;
10633;SDS011;5365;51.640;8.106;2022-08-21T06:33:50;15.57;;;9.85;;
10633;SDS011;5365;51.640;8.106;2022-08-21T06:36:12;17.52;;;9.85;;
10633;SDS011;5365;51.640;8.106;2022-08-21T06:38:34;14.15;;;10.63;;
10633;SDS011;5365;51.640;8.106;2022-08-21T06:40:56;13.23;;;10.07;;
10633;SDS011;5365;51.640;8.106;2022-08-21T06:43:18;13.82;;;10.10;;
10633;SDS011;5365;51.640;8.106;2022-08-21T06:45:40;12.48;;;9.82;;
10633;SDS011;5365;51.640;8.106;2022-08-21T06:48:03;15.48;;;10.27;;
10633;SDS011;5365;51.640;8.106;2022-08-21T06:50:25;11.32;;;9.13;;
10633;SDS011;5365;51.640;8.106;2022-08-21T06:52:47;13.32;;;10.40;;
10633;SDS011;5365;51.640;8.106;2022-08-21T06:55:09;14.30;;;9.50;;
10633;SDS011;5365;51.640;8.106;2022-08-21T06:57:31;14.80;;;10.80;;
10633;SDS011;5365;51.640;8.106;2022-08-21T06:59:53;16.23;;;10.02;;
10633;SDS011;5365;51.640;8.106;2022-08-21T07:02:14;18.48;;;11.65;;
10633;SDS011;5365;51.640;8.106;2022-08-21T07:04:36;18.10;;;10.77;;
10633;SDS011;5365;51.640;8.106;2022-08-21T07:06:58;13.75;;;9.75;;
10633;SDS011;5365;51.640;8.106;2022-08-21T07:09:20;12.18;;;9.23;;
10633;SDS011;5365;51.640;8.106;2022-08-21T07:11:45;10.93;;;8.77;;
10633;SDS011;5365;51.640;8.106;2022-08-21T07:14:09;12.13;;;8.77;;
10633;SDS011;5365;51.640;8.106;2022-08-21T07:16:31;12.50;;;8.52;;
10633;SDS011;5365;51.640;8.106;2022-08-21T07:18:53;10.68;;;8.18;;
10633;SDS011;5365;51.640;8.106;2022-08-21T07:21:15;8.52;;;7.45;;
10633;SDS011;5365;51.640;8.106;2022-08-21T07:23:38;10.70;;;7.40;;
10633;SDS011;5365;51.640;8.106;2022-08-21T07:26:02;8.43;;;7.25;;
10633;SDS011;5365;51.640;8.106;2022-08-21T07:28:24;7.20;;;6.35;;
10633;SDS011;5365;51.640;8.106;2022-08-21T07:30:49;7.38;;;5.55;;
10633;SDS011;5365;51.640;8.106;2022-08-21T07:33:12;8.02;;;6.25;;
10633;SDS011;5365;51.640;8.106;2022-08-21T07:35:34;6.57;;;5.45;;
10633;SDS011;5365;51.640;8.106;2022-08-21T07:37:56;7.13;;;4.88;;
10633;SDS011;5365;51.640;8.106;2022-08-21T07:40:18;5.97;;;4.80;;
10633;SDS011;5365;51.640;8.106;2022-08-21T07:42:43;6.25;;;5.10;;
10633;SDS011;5365;51.640;8.106;2022-08-21T07:45:06;7.65;;;5.75;;
10633;SDS011;5365;51.640;8.106;2022-08-21T07:47:29;7.00;;;4.80;;
10633;SDS011;5365;51.640;8.106;2022-08-21T07:49:50;5.35;;;4.85;;
10633;SDS011;5365;51.640;8.106;2022-08-21T07:52:12;5.40;;;4.85;;
10633;SDS011;5365;51.640;8.106;2022-08-21T07:54:34;7.07;;;4.63;;
10633;SDS011;5365;51.640;8.106;2022-08-21T07:56:56;8.05;;;5.60;;
10633;SDS011;5365;51.640;8.106;2022-08-21T07:59:18;9.25;;;5.32;;
10633;SDS011;5365;51.640;8.106;2022-08-21T08:01:40;4.50;;;4.10;;
10633;SDS011;5365;51.640;8.106;2022-08-21T08:04:02;10.40;;;4.80;;
10633;SDS011;5365;51.640;8.106;2022-08-21T08:06:24;6.18;;;4.72;;
10633;SDS011;5365;51.640;8.106;2022-08-21T08:08:47;4.90;;;4.35;;
10633;SDS011;5365;51.640;8.106;2022-08-21T08:11:09;5.38;;;4.55;;
10633;SDS011;5365;51.640;8.106;2022-08-21T08:13:37;5.63;;;4.32;;
10633;SDS011;5365;51.640;8.106;2022-08-21T08:16:00;5.88;;;4.07;;
10633;SDS011;5365;51.640;8.106;2022-08-21T08:18:22;6.40;;;4.13;;
10633;SDS011;5365;51.640;8.106;2022-08-21T08:20:43;4.97;;;3.35;;
10633;SDS011;5365;51.640;8.106;2022-08-21T08:23:06;3.30;;;3.00;;
10633;SDS011;5365;51.640;8.106;2022-08-21T08:25:28;4.20;;;3.80;;
10633;SDS011;5365;51.640;8.106;2022-08-21T08:27:50;5.97;;;4.03;;
10633;SDS011;5365;51.640;8.106;2022-08-21T08:30:13;8.38;;;3.70;;
10633;SDS011;5365;51.640;8.106;2022-08-21T08:32:36;5.43;;;4.53;;
10633;SDS011;5365;51.640;8.106;2022-08-21T08:34:58;4.05;;;2.75;;
10633;SDS011;5365;51.640;8.106;2022-08-21T08:37:20;4.93;;;2.97;;
10633;SDS011;5365;51.640;8.106;2022-08-21T08:39:42;5.03;;;3.00;;
10633;SDS011;5365;51.640;8.106;2022-08-21T08:42:14;5.57;;;2.95;;
10633;SDS011;5365;51.640;8.106;2022-08-21T08:44:38;4.78;;;3.00;;
10633;SDS011;5365;51.640;8.106;2022-08-21T08:46:59;2.95;;;2.55;;
10633;SDS011;5365;51.640;8.106;2022-08-21T08:49:24;3.22;;;2.92;;
10633;SDS011;5365;51.640;8.106;2022-08-21T08:56:53;3.22;;;2.90;;
10633;SDS011;5365;51.640;8.106;2022-08-21T08:59:21;5.60;;;3.03;;
10633;SDS011;5365;51.640;8.106;2022-08-21T09:01:45;5.18;;;3.13;;
10633;SDS011;5365;51.640;8.106;2022-08-21T09:04:08;3.83;;;2.88;;
10633;SDS011;5365;51.640;8.106;2022-08-21T09:06:50;7.95;;;3.40;;
10633;SDS011;5365;51.640;8.106;2022-08-21T09:12:08;9.40;;;3.50;;
10633;SDS011;5365;51.640;8.106;2022-08-21T09:22:17;4.25;;;2.95;;
10633;SDS011;5365;51.640;8.106;2022-08-21T09:25:18;4.28;;;2.40;;
10633;SDS011;5365;51.640;8.106;2022-08-21T09:27:42;3.63;;;2.42;;
10633;SDS011;5365;51.640;8.106;2022-08-21T09:30:05;4.35;;;2.90;;
10633;SDS011;5365;51.640;8.106;2022-08-21T09:32:29;4.55;;;1.95;;
10633;SDS011;5365;51.640;8.106;2022-08-21T09:37:21;3.92;;;3.08;;
10633;SDS011;5365;51.640;8.106;2022-08-21T09:39:43;7.57;;;3.33;;
10633;SDS011;5365;51.640;8.106;2022-08-21T09:42:09;8.73;;;3.00;;
10633;SDS011;5365;51.640;8.106;2022-08-21T09:44:32;5.25;;;2.55;;
10633;SDS011;5365;51.640;8.106;2022-08-21T09:46:57;4.70;;;2.88;;
10633;SDS011;5365;51.640;8.106;2022-08-21T09:51:57;5.38;;;3.22;;
10633;SDS011;5365;51.640;8.106;2022-08-21T09:54:20;2.55;;;2.33;;
10633;SDS011;5365;51.640;8.106;2022-08-21T09:56:53;4.57;;;2.60;;
10633;SDS011;5365;51.640;8.106;2022-08-21T09:59:36;4.15;;;2.42;;
10633;SDS011;5365;51.640;8.106;2022-08-21T10:01:59;6.30;;;2.80;;
10633;SDS011;5365;51.640;8.106;2022-08-21T10:04:28;6.88;;;2.72;;
10633;SDS011;5365;51.640;8.106;2022-08-21T10:06:52;4.07;;;2.20;;
10633;SDS011;5365;51.640;8.106;2022-08-21T10:09:17;4.53;;;2.47;;
10633;SDS011;5365;51.640;8.106;2022-08-21T10:11:43;3.25;;;2.22;;
10633;SDS011;5365;51.640;8.106;2022-08-21T10:19:45;2.03;;;1.90;;
10633;SDS011;5365;51.640;8.106;2022-08-21T10:27:18;5.90;;;2.47;;
10633;SDS011;5365;51.640;8.106;2022-08-21T10:34:56;3.13;;;2.15;;
10633;SDS011;5365;51.640;8.106;2022-08-21T10:41:03;4.35;;;2.83;;
10633;SDS011;5365;51.640;8.106;2022-08-21T10:43:59;5.68;;;2.60;;
10633;SDS011;5365;51.640;8.106;2022-08-21T10:46:39;2.88;;;2.40;;
10633;SDS011;5365;51.640;8.106;2022-08-21T10:49:17;3.78;;;2.38;;
10633;SDS011;5365;51.640;8.106;2022-08-21T10:55:04;4.47;;;2.80;;
10633;SDS011;5365;51.640;8.106;2022-08-21T10:57:34;3.72;;;2.72;;
10633;SDS011;5365;51.640;8.106;2022-08-21T11:00:07;3.10;;;2.80;;
10633;SDS011;5365;51.640;8.106;2022-08-21T11:05:30;2.95;;;2.75;;
10633;SDS011;5365;51.640;8.106;2022-08-21T11:07:56;2.78;;;2.40;;
10633;SDS011;5365;51.640;8.106;2022-08-21T11:10:32;3.88;;;2.67;;
10633;SDS011;5365;51.640;8.106;2022-08-21T11:13:00;3.75;;;2.70;;
10633;SDS011;5365;51.640;8.106;2022-08-21T11:23:17;2.90;;;2.70;;
10633;SDS011;5365;51.640;8.106;2022-08-21T11:25:44;3.70;;;2.85;;
10633;SDS011;5365;51.640;8.106;2022-08-21T11:28:15;2.83;;;2.60;;
10633;SDS011;5365;51.640;8.106;2022-08-21T11:38:42;3.58;;;1.88;;
10633;SDS011;5365;51.640;8.106;2022-08-21T11:43:52;2.70;;;2.10;;
10633;SDS011;5365;51.640;8.106;2022-08-21T11:54:28;3.88;;;2.67;;
10633;SDS011;5365;51.640;8.106;2022-08-21T11:57:12;3.90;;;2.20;;
10633;SDS011;5365;51.640;8.106;2022-08-21T12:02:33;2.45;;;1.80;;
10633;SDS011;5365;51.640;8.106;2022-08-21T12:05:01;2.15;;;1.92;;
10633;SDS011;5365;51.640;8.106;2022-08-21T12:07:38;2.83;;;1.98;;
10633;SDS011;5365;51.640;8.106;2022-08-21T12:10:04;1.77;;;1.67;;
10633;SDS011;5365;51.640;8.106;2022-08-21T12:12:29;1.70;;;1.60;;
10633;SDS011;5365;51.640;8.106;2022-08-21T12:17:36;2.95;;;2.00;;
10633;SDS011;5365;51.640;8.106;2022-08-21T12:20:00;1.90;;;1.80;;
10633;SDS011;5365;51.640;8.106;2022-08-21T12:22:37;2.05;;;1.85;;
10633;SDS011;5365;51.640;8.106;2022-08-21T12:25:03;2.35;;;1.90;;
10633;SDS011;5365;51.640;8.106;2022-08-21T12:27:29;2.17;;;1.60;;
10633;SDS011;5365;51.640;8.106;2022-08-21T12:29:56;2.40;;;1.80;;
10633;SDS011;5365;51.640;8.106;2022-08-21T12:32:41;1.83;;;1.70;;
10633;SDS011;5365;51.640;8.106;2022-08-21T12:35:10;2.17;;;1.88;;
10633;SDS011;5365;51.640;8.106;2022-08-21T12:37:59;3.50;;;1.90;;
10633;SDS011;5365;51.640;8.106;2022-08-21T12:42:53;1.70;;;1.60;;
10633;SDS011;5365;51.640;8.106;2022-08-21T12:45:20;1.48;;;1.38;;
10633;SDS011;5365;51.640;8.106;2022-08-21T12:47:51;1.58;;;1.48;;
10633;SDS011;5365;51.640;8.106;2022-08-21T12:50:26;1.35;;;1.35;;
10633;SDS011;5365;51.640;8.106;2022-08-21T12:52:59;2.78;;;1.73;;
10633;SDS011;5365;51.640;8.106;2022-08-21T12:55:28;1.80;;;1.63;;
10633;SDS011;5365;51.640;8.106;2022-08-21T12:57:51;1.83;;;1.50;;
10633;SDS011;5365;51.640;8.106;2022-08-21T13:00:13;1.60;;;1.40;;
10633;SDS011;5365;51.640;8.106;2022-08-21T13:02:43;1.65;;;1.60;;
10633;SDS011;5365;51.640;8.106;2022-08-21T13:05:11;1.55;;;1.42;;
10633;SDS011;5365;51.640;8.106;2022-08-21T13:07:34;2.22;;;1.38;;
10633;SDS011;5365;51.640;8.106;2022-08-21T13:09:58;1.88;;;1.48;;
10633;SDS011;5365;51.640;8.106;2022-08-21T13:12:40;2.35;;;1.45;;
10633;SDS011;5365;51.640;8.106;2022-08-21T13:15:03;1.70;;;1.60;;
10633;SDS011;5365;51.640;8.106;2022-08-21T13:17:27;1.95;;;1.40;;
10633;SDS011;5365;51.640;8.106;2022-08-21T13:20:00;2.15;;;1.48;;
10633;SDS011;5365;51.640;8.106;2022-08-21T13:22:24;2.33;;;1.70;;
10633;SDS011;5365;51.640;8.106;2022-08-21T13:24:47;1.88;;;1.73;;
10633;SDS011;5365;51.640;8.106;2022-08-21T13:27:23;2.70;;;1.73;;
10633;SDS011;5365;51.640;8.106;2022-08-21T13:29:47;1.85;;;1.60;;
10633;SDS011;5365;51.640;8.106;2022-08-21T13:32:13;1.92;;;1.83;;
10633;SDS011;5365;51.640;8.106;2022-08-21T13:34:41;1.75;;;1.60;;
10633;SDS011;5365;51.640;8.106;2022-08-21T13:37:06;3.63;;;1.42;;
10633;SDS011;5365;51.640;8.106;2022-08-21T13:39:29;1.40;;;1.30;;
10633;SDS011;5365;51.640;8.106;2022-08-21T13:41:54;1.45;;;1.33;;
10633;SDS011;5365;51.640;8.106;2022-08-21T13:44:23;1.02;;;1.02;;
10633;SDS011;5365;51.640;8.106;2022-08-21T13:46:48;1.88;;;1.00;;
10633;SDS011;5365;51.640;8.106;2022-08-21T13:49:12;1.35;;;1.15;;
10633;SDS011;5365;51.640;8.106;2022-08-21T13:51:36;1.70;;;1.50;;
10633;SDS011;5365;51.640;8.106;2022-08-21T13:53:58;1.40;;;1.30;;
10633;SDS011;5365;51.640;8.106;2022-08-21T13:56:27;1.67;;;1.33;;
10633;SDS011;5365;51.640;8.106;2022-08-21T13:58:51;1.13;;;1.10;;
10633;SDS011;5365;51.640;8.106;2022-08-21T14:01:25;1.10;;;1.00;;
10633;SDS011;5365;51.640;8.106;2022-08-21T14:03:48;1.42;;;1.27;;
10633;SDS011;5365;51.640;8.106;2022-08-21T14:06:14;1.30;;;1.20;;
10633;SDS011;5365;51.640;8.106;2022-08-21T14:08:39;1.38;;;0.98;;
10633;SDS011;5365;51.640;8.106;2022-08-21T14:11:04;1.20;;;1.10;;
10633;SDS011;5365;51.640;8.106;2022-08-21T14:13:29;1.90;;;1.60;;
10633;SDS011;5365;51.640;8.106;2022-08-21T14:16:00;1.40;;;1.30;;
10633;SDS011;5365;51.640;8.106;2022-08-21T14:18:23;1.85;;;1.30;;
10633;SDS011;5365;51.640;8.106;2022-08-21T14:20:47;1.40;;;1.30;;
10633;SDS011;5365;51.640;8.106;2022-08-21T14:23:09;1.10;;;1.10;;
10633;SDS011;5365;51.640;8.106;2022-08-21T14:25:37;1.05;;;1.00;;
10633;SDS011;5365;51.640;8.106;2022-08-21T14:30:42;1.25;;;1.08;;
10633;SDS011;5365;51.640;8.106;2022-08-21T14:33:04;1.58;;;1.08;;
10633;SDS011;5365;51.640;8.106;2022-08-21T14:35:31;1.00;;;1.00;;
10633;SDS011;5365;51.640;8.106;2022-08-21T14:37:52;1.13;;;1.05;;
10633;SDS011;5365;51.640;8.106;2022-08-21T14:40:16;1.00;;;1.00;;
10633;SDS011;5365;51.640;8.106;2022-08-21T14:42:39;1.27;;;0.90;;
10633;SDS011;5365;51.640;8.106;2022-08-21T14:45:07;1.45;;;1.10;;
10633;SDS011;5365;51.640;8.106;2022-08-21T14:47:34;1.10;;;1.00;;
10633;SDS011;5365;51.640;8.106;2022-08-21T14:49:56;1.02;;;0.82;;
10633;SDS011;5365;51.640;8.106;2022-08-21T14:52:18;1.88;;;1.20;;
10633;SDS011;5365;51.640;8.106;2022-08-21T14:54:39;1.90;;;1.33;;
10633;SDS011;5365;51.640;8.106;2022-08-21T14:57:04;2.25;;;1.75;;
10633;SDS011;5365;51.640;8.106;2022-08-21T14:59:28;1.20;;;1.02;;
10633;SDS011;5365;51.640;8.106;2022-08-21T15:01:50;1.30;;;1.20;;
10633;SDS011;5365;51.640;8.106;2022-08-21T15:04:11;1.25;;;1.17;;
10633;SDS011;5365;51.640;8.106;2022-08-21T15:06:33;1.20;;;1.13;;
10633;SDS011;5365;51.640;8.106;2022-08-21T15:08:55;1.88;;;1.45;;
10633;SDS011;5365;51.640;8.106;2022-08-21T15:11:18;1.65;;;1.00;;
10633;SDS011;5365;51.640;8.106;2022-08-21T15:13:42;1.20;;;1.08;;
10633;SDS011;5365;51.640;8.106;2022-08-21T15:16:04;0.80;;;0.80;;
10633;SDS011;5365;51.640;8.106;2022-08-21T15:18:27;1.48;;;1.20;;
10633;SDS011;5365;51.640;8.106;2022-08-21T15:20:50;0.85;;;0.85;;
10633;SDS011;5365;51.640;8.106;2022-08-21T15:23:12;1.42;;;1.00;;
10633;SDS011;5365;51.640;8.106;2022-08-21T15:25:35;1.27;;;1.17;;
10633;SDS011;5365;51.640;8.106;2022-08-21T15:27:58;1.10;;;1.10;;
10633;SDS011;5365;51.640;8.106;2022-08-21T15:30:21;1.15;;;1.15;;
10633;SDS011;5365;51.640;8.106;2022-08-21T15:32:43;1.95;;;1.20;;
10633;SDS011;5365;51.640;8.106;2022-08-21T15:35:05;1.30;;;1.20;;
10633;SDS011;5365;51.640;8.106;2022-08-21T15:37:27;1.13;;;1.00;;
10633;SDS011;5365;51.640;8.106;2022-08-21T15:39:49;0.93;;;0.93;;
10633;SDS011;5365;51.640;8.106;2022-08-21T15:42:12;1.70;;;1.13;;
10633;SDS011;5365;51.640;8.106;2022-08-21T15:44:36;1.30;;;1.20;;
10633;SDS011;5365;51.640;8.106;2022-08-21T15:46:58;1.08;;;1.02;;
10633;SDS011;5365;51.640;8.106;2022-08-21T15:49:20;1.73;;;1.27;;
10633;SDS011;5365;51.640;8.106;2022-08-21T15:51:42;1.75;;;1.23;;
10633;SDS011;5365;51.640;8.106;2022-08-21T15:54:04;1.95;;;1.77;;
10633;SDS011;5365;51.640;8.106;2022-08-21T15:56:27;2.33;;;1.52;;
10633;SDS011;5365;51.640;8.106;2022-08-21T15:58:59;1.63;;;1.10;;
10633;SDS011;5365;51.640;8.106;2022-08-21T16:01:22;1.52;;;1.30;;
10633;SDS011;5365;51.640;8.106;2022-08-21T16:03:45;2.40;;;1.20;;
10633;SDS011;5365;51.640;8.106;2022-08-21T16:06:09;1.67;;;1.30;;